sensor_id;sensor_type;location;lat;lon;timestamp;P1;durP1;ratioP1;P2;durP2;ratioP2
51358;SDS011;37448;51.588;7.248;2024-02-04T00:00:58;27.20;;;14.93;;
51358;SDS011;37448;51.588;7.248;2024-02-04T00:02:58;24.90;;;13.43;;
51358;SDS011;37448;51.588;7.248;2024-02-04T00:04:59;23.83;;;13.45;;
51358;SDS011;37448;51.588;7.248;2024-02-04T00:06:59;22.55;;;13.75;;
51358;SDS011;37448;51.588;7.248;2024-02-04T00:09:00;24.38;;;13.00;;
51358;SDS011;37448;51.588;7.248;2024-02-04T00:11:00;23.15;;;13.07;;
51358;SDS011;37448;51.588;7.248;2024-02-04T00:13:01;20.92;;;12.40;;
51358;SDS011;37448;51.588;7.248;2024-02-04T00:15:01;25.08;;;12.70;;
51358;SDS011;37448;51.588;7.248;2024-02-04T00:17:04;20.10;;;11.95;;
51358;SDS011;37448;51.588;7.248;2024-02-04T00:19:04;21.77;;;12.88;;
51358;SDS011;37448;51.588;7.248;2024-02-04T00:21:05;25.40;;;12.63;;
51358;SDS011;37448;51.588;7.248;2024-02-04T00:23:05;24.02;;;12.20;;
51358;SDS011;37448;51.588;7.248;2024-02-04T00:25:06;22.30;;;12.63;;
51358;SDS011;37448;51.588;7.248;2024-02-04T00:27:10;20.35;;;12.70;;
51358;SDS011;37448;51.588;7.248;2024-02-04T00:29:11;20.77;;;12.13;;
51358;SDS011;37448;51.588;7.248;2024-02-04T00:31:11;19.40;;;11.52;;
51358;SDS011;37448;51.588;7.248;2024-02-04T00:33:12;20.17;;;11.85;;
51358;SDS011;37448;51.588;7.248;2024-02-04T00:35:12;21.45;;;11.65;;
51358;SDS011;37448;51.588;7.248;2024-02-04T00:37:12;19.75;;;11.07;;
51358;SDS011;37448;51.588;7.248;2024-02-04T00:39:13;17.70;;;10.27;;
51358;SDS011;37448;51.588;7.248;2024-02-04T00:41:13;15.32;;;9.75;;
51358;SDS011;37448;51.588;7.248;2024-02-04T00:43:14;15.68;;;9.63;;
51358;SDS011;37448;51.588;7.248;2024-02-04T00:45:14;15.20;;;8.85;;
51358;SDS011;37448;51.588;7.248;2024-02-04T00:47:14;13.73;;;9.00;;
51358;SDS011;37448;51.588;7.248;2024-02-04T00:49:15;15.85;;;7.85;;
51358;SDS011;37448;51.588;7.248;2024-02-04T00:51:16;13.07;;;8.20;;
51358;SDS011;37448;51.588;7.248;2024-02-04T00:53:20;13.50;;;7.70;;
51358;SDS011;37448;51.588;7.248;2024-02-04T00:55:21;9.73;;;6.28;;
51358;SDS011;37448;51.588;7.248;2024-02-04T00:57:21;12.07;;;7.05;;
51358;SDS011;37448;51.588;7.248;2024-02-04T00:59:21;13.18;;;7.13;;
51358;SDS011;37448;51.588;7.248;2024-02-04T01:01:22;12.07;;;6.32;;
51358;SDS011;37448;51.588;7.248;2024-02-04T01:03:23;12.23;;;6.80;;
51358;SDS011;37448;51.588;7.248;2024-02-04T01:05:23;11.13;;;6.28;;
51358;SDS011;37448;51.588;7.248;2024-02-04T01:07:23;13.18;;;5.97;;
51358;SDS011;37448;51.588;7.248;2024-02-04T01:09:24;10.65;;;6.53;;
51358;SDS011;37448;51.588;7.248;2024-02-04T01:11:24;14.15;;;6.90;;
51358;SDS011;37448;51.588;7.248;2024-02-04T01:13:24;10.18;;;6.82;;
51358;SDS011;37448;51.588;7.248;2024-02-04T01:15:25;11.50;;;5.97;;
51358;SDS011;37448;51.588;7.248;2024-02-04T01:17:26;12.15;;;5.90;;
51358;SDS011;37448;51.588;7.248;2024-02-04T01:19:27;9.30;;;5.72;;
51358;SDS011;37448;51.588;7.248;2024-02-04T01:21:27;8.88;;;5.03;;
51358;SDS011;37448;51.588;7.248;2024-02-04T01:23:28;9.25;;;4.75;;
51358;SDS011;37448;51.588;7.248;2024-02-04T01:25:28;5.05;;;3.65;;
51358;SDS011;37448;51.588;7.248;2024-02-04T01:27:29;6.03;;;3.72;;
51358;SDS011;37448;51.588;7.248;2024-02-04T01:29:29;5.47;;;3.63;;
51358;SDS011;37448;51.588;7.248;2024-02-04T01:31:29;6.45;;;4.35;;
51358;SDS011;37448;51.588;7.248;2024-02-04T01:33:31;7.75;;;4.28;;
51358;SDS011;37448;51.588;7.248;2024-02-04T01:35:31;4.82;;;3.55;;
51358;SDS011;37448;51.588;7.248;2024-02-04T01:37:31;5.18;;;4.10;;
51358;SDS011;37448;51.588;7.248;2024-02-04T01:39:32;6.68;;;3.83;;
51358;SDS011;37448;51.588;7.248;2024-02-04T01:41:32;7.10;;;4.30;;
51358;SDS011;37448;51.588;7.248;2024-02-04T01:43:33;7.00;;;4.53;;
51358;SDS011;37448;51.588;7.248;2024-02-04T01:45:33;6.85;;;4.88;;
51358;SDS011;37448;51.588;7.248;2024-02-04T01:47:34;6.35;;;4.40;;
51358;SDS011;37448;51.588;7.248;2024-02-04T01:49:35;8.85;;;5.57;;
51358;SDS011;37448;51.588;7.248;2024-02-04T01:51:36;7.43;;;4.97;;
51358;SDS011;37448;51.588;7.248;2024-02-04T01:53:36;8.65;;;5.40;;
51358;SDS011;37448;51.588;7.248;2024-02-04T01:55:40;8.25;;;5.15;;
51358;SDS011;37448;51.588;7.248;2024-02-04T01:57:40;8.65;;;5.38;;
51358;SDS011;37448;51.588;7.248;2024-02-04T01:59:41;11.27;;;6.18;;
51358;SDS011;37448;51.588;7.248;2024-02-04T02:01:43;8.85;;;5.68;;
51358;SDS011;37448;51.588;7.248;2024-02-04T02:03:44;7.90;;;5.00;;
51358;SDS011;37448;51.588;7.248;2024-02-04T02:05:44;8.82;;;5.55;;
51358;SDS011;37448;51.588;7.248;2024-02-04T02:07:46;8.70;;;5.80;;
51358;SDS011;37448;51.588;7.248;2024-02-04T02:09:51;7.88;;;4.88;;
51358;SDS011;37448;51.588;7.248;2024-02-04T02:11:54;8.48;;;5.25;;
51358;SDS011;37448;51.588;7.248;2024-02-04T02:14:02;8.35;;;5.47;;
51358;SDS011;37448;51.588;7.248;2024-02-04T02:16:13;8.27;;;4.60;;
51358;SDS011;37448;51.588;7.248;2024-02-04T02:23:07;8.90;;;5.45;;
51358;SDS011;37448;51.588;7.248;2024-02-04T02:25:12;8.40;;;5.88;;
51358;SDS011;37448;51.588;7.248;2024-02-04T02:27:14;8.25;;;4.75;;
51358;SDS011;37448;51.588;7.248;2024-02-04T02:29:14;8.73;;;5.88;;
51358;SDS011;37448;51.588;7.248;2024-02-04T02:31:15;9.10;;;6.00;;
51358;SDS011;37448;51.588;7.248;2024-02-04T02:33:15;9.60;;;5.97;;
51358;SDS011;37448;51.588;7.248;2024-02-04T02:35:16;8.90;;;6.03;;
51358;SDS011;37448;51.588;7.248;2024-02-04T02:39:45;7.85;;;5.40;;
51358;SDS011;37448;51.588;7.248;2024-02-04T02:42:06;9.23;;;5.93;;
51358;SDS011;37448;51.588;7.248;2024-02-04T02:44:07;9.52;;;5.93;;
51358;SDS011;37448;51.588;7.248;2024-02-04T02:46:09;10.15;;;5.20;;
51358;SDS011;37448;51.588;7.248;2024-02-04T02:48:10;10.02;;;5.80;;
51358;SDS011;37448;51.588;7.248;2024-02-04T02:50:11;9.25;;;6.25;;
51358;SDS011;37448;51.588;7.248;2024-02-04T02:52:13;12.50;;;6.85;;
51358;SDS011;37448;51.588;7.248;2024-02-04T02:54:13;10.85;;;6.88;;
51358;SDS011;37448;51.588;7.248;2024-02-04T02:56:14;9.98;;;5.95;;
51358;SDS011;37448;51.588;7.248;2024-02-04T02:58:14;11.32;;;7.32;;
51358;SDS011;37448;51.588;7.248;2024-02-04T03:00:14;11.40;;;7.32;;
51358;SDS011;37448;51.588;7.248;2024-02-04T03:02:15;15.25;;;7.15;;
51358;SDS011;37448;51.588;7.248;2024-02-04T03:04:16;15.65;;;7.65;;
51358;SDS011;37448;51.588;7.248;2024-02-04T03:06:16;12.57;;;7.88;;
51358;SDS011;37448;51.588;7.248;2024-02-04T03:08:16;13.65;;;8.07;;
51358;SDS011;37448;51.588;7.248;2024-02-04T03:10:17;15.55;;;8.20;;
51358;SDS011;37448;51.588;7.248;2024-02-04T03:12:18;14.15;;;7.50;;
51358;SDS011;37448;51.588;7.248;2024-02-04T03:14:19;14.48;;;8.27;;
51358;SDS011;37448;51.588;7.248;2024-02-04T03:16:20;16.45;;;8.57;;
51358;SDS011;37448;51.588;7.248;2024-02-04T03:18:20;13.38;;;7.70;;
51358;SDS011;37448;51.588;7.248;2024-02-04T03:20:21;14.07;;;7.03;;
51358;SDS011;37448;51.588;7.248;2024-02-04T03:22:21;14.75;;;8.73;;
51358;SDS011;37448;51.588;7.248;2024-02-04T03:24:22;17.50;;;9.07;;
51358;SDS011;37448;51.588;7.248;2024-02-04T03:26:22;19.20;;;8.70;;
51358;SDS011;37448;51.588;7.248;2024-02-04T03:28:23;15.63;;;8.20;;
51358;SDS011;37448;51.588;7.248;2024-02-04T03:30:24;16.13;;;8.10;;
51358;SDS011;37448;51.588;7.248;2024-02-04T03:32:24;19.45;;;9.45;;
51358;SDS011;37448;51.588;7.248;2024-02-04T03:34:24;15.50;;;7.70;;
51358;SDS011;37448;51.588;7.248;2024-02-04T03:36:25;16.23;;;8.45;;
51358;SDS011;37448;51.588;7.248;2024-02-04T03:38:26;17.00;;;8.75;;
51358;SDS011;37448;51.588;7.248;2024-02-04T03:40:26;17.95;;;8.85;;
51358;SDS011;37448;51.588;7.248;2024-02-04T03:42:27;15.82;;;8.90;;
51358;SDS011;37448;51.588;7.248;2024-02-04T03:44:27;14.30;;;8.15;;
51358;SDS011;37448;51.588;7.248;2024-02-04T03:46:28;14.35;;;7.80;;
51358;SDS011;37448;51.588;7.248;2024-02-04T03:48:28;18.50;;;8.80;;
51358;SDS011;37448;51.588;7.248;2024-02-04T03:50:29;13.77;;;7.70;;
51358;SDS011;37448;51.588;7.248;2024-02-04T03:52:29;18.20;;;8.82;;
51358;SDS011;37448;51.588;7.248;2024-02-04T03:54:30;17.20;;;8.98;;
51358;SDS011;37448;51.588;7.248;2024-02-04T03:56:30;19.70;;;9.98;;
51358;SDS011;37448;51.588;7.248;2024-02-04T03:58:32;18.60;;;9.85;;
51358;SDS011;37448;51.588;7.248;2024-02-04T04:00:32;18.23;;;9.40;;
51358;SDS011;37448;51.588;7.248;2024-02-04T04:02:33;17.27;;;9.55;;
51358;SDS011;37448;51.588;7.248;2024-02-04T04:04:33;22.45;;;10.98;;
51358;SDS011;37448;51.588;7.248;2024-02-04T04:06:34;19.83;;;9.38;;
51358;SDS011;37448;51.588;7.248;2024-02-04T04:08:34;19.80;;;9.70;;
51358;SDS011;37448;51.588;7.248;2024-02-04T04:10:35;21.50;;;10.68;;
51358;SDS011;37448;51.588;7.248;2024-02-04T04:12:35;21.95;;;11.10;;
51358;SDS011;37448;51.588;7.248;2024-02-04T04:14:36;20.23;;;10.10;;
51358;SDS011;37448;51.588;7.248;2024-02-04T04:16:36;21.13;;;10.60;;
51358;SDS011;37448;51.588;7.248;2024-02-04T04:18:37;20.23;;;10.63;;
51358;SDS011;37448;51.588;7.248;2024-02-04T04:20:38;23.80;;;11.18;;
51358;SDS011;37448;51.588;7.248;2024-02-04T04:22:39;24.52;;;10.43;;
51358;SDS011;37448;51.588;7.248;2024-02-04T04:24:41;20.65;;;10.45;;
51358;SDS011;37448;51.588;7.248;2024-02-04T04:26:41;16.80;;;9.95;;
51358;SDS011;37448;51.588;7.248;2024-02-04T04:28:41;19.63;;;9.85;;
51358;SDS011;37448;51.588;7.248;2024-02-04T04:30:42;20.02;;;9.90;;
51358;SDS011;37448;51.588;7.248;2024-02-04T04:32:42;21.50;;;11.40;;
51358;SDS011;37448;51.588;7.248;2024-02-04T04:34:42;19.65;;;11.07;;
51358;SDS011;37448;51.588;7.248;2024-02-04T04:36:43;21.60;;;10.20;;
51358;SDS011;37448;51.588;7.248;2024-02-04T04:38:44;22.90;;;10.48;;
51358;SDS011;37448;51.588;7.248;2024-02-04T04:40:45;26.90;;;13.10;;
51358;SDS011;37448;51.588;7.248;2024-02-04T04:42:45;23.98;;;12.90;;
51358;SDS011;37448;51.588;7.248;2024-02-04T04:44:46;24.98;;;12.18;;
51358;SDS011;37448;51.588;7.248;2024-02-04T04:46:46;32.28;;;15.07;;
51358;SDS011;37448;51.588;7.248;2024-02-04T04:48:47;31.17;;;15.10;;
51358;SDS011;37448;51.588;7.248;2024-02-04T04:50:47;34.30;;;16.20;;
51358;SDS011;37448;51.588;7.248;2024-02-04T04:52:48;31.38;;;15.05;;
51358;SDS011;37448;51.588;7.248;2024-02-04T04:54:48;32.58;;;13.93;;
51358;SDS011;37448;51.588;7.248;2024-02-04T04:56:48;29.70;;;15.68;;
51358;SDS011;37448;51.588;7.248;2024-02-04T04:58:49;28.50;;;14.45;;
51358;SDS011;37448;51.588;7.248;2024-02-04T05:00:50;29.13;;;15.10;;
51358;SDS011;37448;51.588;7.248;2024-02-04T05:02:51;29.38;;;15.27;;
51358;SDS011;37448;51.588;7.248;2024-02-04T05:04:51;24.13;;;14.57;;
51358;SDS011;37448;51.588;7.248;2024-02-04T05:06:52;27.75;;;14.90;;
51358;SDS011;37448;51.588;7.248;2024-02-04T05:08:52;28.33;;;13.98;;
51358;SDS011;37448;51.588;7.248;2024-02-04T05:10:53;26.10;;;13.57;;
51358;SDS011;37448;51.588;7.248;2024-02-04T05:12:53;26.02;;;12.52;;
51358;SDS011;37448;51.588;7.248;2024-02-04T05:14:53;29.80;;;13.20;;
51358;SDS011;37448;51.588;7.248;2024-02-04T05:16:54;25.20;;;11.98;;
51358;SDS011;37448;51.588;7.248;2024-02-04T05:18:54;20.88;;;10.88;;
51358;SDS011;37448;51.588;7.248;2024-02-04T05:20:54;21.98;;;12.18;;
51358;SDS011;37448;51.588;7.248;2024-02-04T05:22:55;23.20;;;11.77;;
51358;SDS011;37448;51.588;7.248;2024-02-04T05:24:57;25.02;;;11.32;;
51358;SDS011;37448;51.588;7.248;2024-02-04T05:26:58;23.42;;;11.48;;
51358;SDS011;37448;51.588;7.248;2024-02-04T05:28:58;21.52;;;10.77;;
51358;SDS011;37448;51.588;7.248;2024-02-04T05:30:58;21.20;;;10.90;;
51358;SDS011;37448;51.588;7.248;2024-02-04T05:33:01;22.05;;;11.80;;
51358;SDS011;37448;51.588;7.248;2024-02-04T05:35:01;25.23;;;13.70;;
51358;SDS011;37448;51.588;7.248;2024-02-04T05:37:01;23.98;;;12.18;;
51358;SDS011;37448;51.588;7.248;2024-02-04T05:39:09;23.48;;;11.73;;
51358;SDS011;37448;51.588;7.248;2024-02-04T05:41:11;22.67;;;12.52;;
51358;SDS011;37448;51.588;7.248;2024-02-04T05:43:11;21.60;;;10.88;;
51358;SDS011;37448;51.588;7.248;2024-02-04T05:45:12;23.85;;;10.80;;
51358;SDS011;37448;51.588;7.248;2024-02-04T05:47:12;22.33;;;10.43;;
51358;SDS011;37448;51.588;7.248;2024-02-04T05:49:13;22.00;;;11.02;;
51358;SDS011;37448;51.588;7.248;2024-02-04T05:51:13;20.73;;;11.88;;
51358;SDS011;37448;51.588;7.248;2024-02-04T05:53:13;27.58;;;12.50;;
51358;SDS011;37448;51.588;7.248;2024-02-04T05:55:14;20.90;;;11.45;;
51358;SDS011;37448;51.588;7.248;2024-02-04T05:57:15;20.92;;;9.73;;
51358;SDS011;37448;51.588;7.248;2024-02-04T05:59:15;19.33;;;9.95;;
51358;SDS011;37448;51.588;7.248;2024-02-04T06:01:16;21.50;;;11.23;;
51358;SDS011;37448;51.588;7.248;2024-02-04T06:03:17;19.67;;;10.93;;
51358;SDS011;37448;51.588;7.248;2024-02-04T06:05:17;20.50;;;11.68;;
51358;SDS011;37448;51.588;7.248;2024-02-04T06:07:18;20.15;;;9.77;;
51358;SDS011;37448;51.588;7.248;2024-02-04T06:09:18;25.65;;;10.27;;
51358;SDS011;37448;51.588;7.248;2024-02-04T06:11:18;20.65;;;10.13;;
51358;SDS011;37448;51.588;7.248;2024-02-04T06:13:19;21.10;;;10.60;;
51358;SDS011;37448;51.588;7.248;2024-02-04T06:15:19;21.92;;;9.55;;
51358;SDS011;37448;51.588;7.248;2024-02-04T06:17:21;20.38;;;9.85;;
51358;SDS011;37448;51.588;7.248;2024-02-04T06:19:21;16.92;;;9.45;;
51358;SDS011;37448;51.588;7.248;2024-02-04T06:21:22;18.77;;;9.15;;
51358;SDS011;37448;51.588;7.248;2024-02-04T06:23:22;18.67;;;10.32;;
51358;SDS011;37448;51.588;7.248;2024-02-04T06:25:23;17.52;;;8.95;;
51358;SDS011;37448;51.588;7.248;2024-02-04T06:27:23;17.17;;;8.52;;
51358;SDS011;37448;51.588;7.248;2024-02-04T06:29:24;16.52;;;9.07;;
51358;SDS011;37448;51.588;7.248;2024-02-04T06:31:24;21.05;;;9.43;;
51358;SDS011;37448;51.588;7.248;2024-02-04T06:33:24;21.38;;;9.23;;
51358;SDS011;37448;51.588;7.248;2024-02-04T06:35:25;23.23;;;10.20;;
51358;SDS011;37448;51.588;7.248;2024-02-04T06:37:25;22.05;;;9.98;;
51358;SDS011;37448;51.588;7.248;2024-02-04T06:39:26;21.85;;;11.60;;
51358;SDS011;37448;51.588;7.248;2024-02-04T06:41:26;22.88;;;11.65;;
51358;SDS011;37448;51.588;7.248;2024-02-04T06:43:26;22.02;;;11.98;;
51358;SDS011;37448;51.588;7.248;2024-02-04T06:45:27;20.17;;;11.55;;
51358;SDS011;37448;51.588;7.248;2024-02-04T06:47:27;23.73;;;12.43;;
51358;SDS011;37448;51.588;7.248;2024-02-04T06:49:28;22.98;;;12.50;;
51358;SDS011;37448;51.588;7.248;2024-02-04T06:51:28;20.45;;;11.20;;
51358;SDS011;37448;51.588;7.248;2024-02-04T06:53:28;22.85;;;11.30;;
51358;SDS011;37448;51.588;7.248;2024-02-04T06:55:29;24.40;;;12.65;;
51358;SDS011;37448;51.588;7.248;2024-02-04T06:57:29;25.58;;;13.88;;
51358;SDS011;37448;51.588;7.248;2024-02-04T06:59:30;23.85;;;14.07;;
51358;SDS011;37448;51.588;7.248;2024-02-04T07:01:30;24.65;;;12.15;;
51358;SDS011;37448;51.588;7.248;2024-02-04T07:03:31;19.70;;;12.10;;
51358;SDS011;37448;51.588;7.248;2024-02-04T07:05:31;26.80;;;13.43;;
51358;SDS011;37448;51.588;7.248;2024-02-04T07:07:33;26.77;;;13.20;;
51358;SDS011;37448;51.588;7.248;2024-02-04T07:09:34;25.23;;;12.50;;
51358;SDS011;37448;51.588;7.248;2024-02-04T07:11:35;26.45;;;14.10;;
51358;SDS011;37448;51.588;7.248;2024-02-04T07:13:35;27.30;;;13.52;;
51358;SDS011;37448;51.588;7.248;2024-02-04T07:15:35;28.45;;;13.90;;
51358;SDS011;37448;51.588;7.248;2024-02-04T07:17:36;26.10;;;12.95;;
51358;SDS011;37448;51.588;7.248;2024-02-04T07:19:36;25.65;;;13.15;;
51358;SDS011;37448;51.588;7.248;2024-02-04T07:21:36;25.10;;;13.35;;
51358;SDS011;37448;51.588;7.248;2024-02-04T07:23:37;27.95;;;14.40;;
51358;SDS011;37448;51.588;7.248;2024-02-04T07:25:37;28.75;;;14.23;;
51358;SDS011;37448;51.588;7.248;2024-02-04T07:27:37;28.00;;;14.73;;
51358;SDS011;37448;51.588;7.248;2024-02-04T07:29:38;26.73;;;13.35;;
51358;SDS011;37448;51.588;7.248;2024-02-04T07:31:38;28.85;;;14.98;;
51358;SDS011;37448;51.588;7.248;2024-02-04T07:33:39;25.75;;;14.13;;
51358;SDS011;37448;51.588;7.248;2024-02-04T07:35:39;31.48;;;13.32;;
51358;SDS011;37448;51.588;7.248;2024-02-04T07:37:40;26.85;;;13.30;;
51358;SDS011;37448;51.588;7.248;2024-02-04T07:39:40;27.48;;;14.15;;
51358;SDS011;37448;51.588;7.248;2024-02-04T07:41:40;27.40;;;14.10;;
51358;SDS011;37448;51.588;7.248;2024-02-04T07:43:41;24.50;;;13.45;;
51358;SDS011;37448;51.588;7.248;2024-02-04T07:45:41;26.50;;;13.57;;
51358;SDS011;37448;51.588;7.248;2024-02-04T07:47:42;24.17;;;12.98;;
51358;SDS011;37448;51.588;7.248;2024-02-04T07:49:42;22.20;;;11.80;;
51358;SDS011;37448;51.588;7.248;2024-02-04T07:51:42;24.52;;;12.00;;
51358;SDS011;37448;51.588;7.248;2024-02-04T07:53:43;27.25;;;13.30;;
51358;SDS011;37448;51.588;7.248;2024-02-04T07:55:44;23.45;;;11.70;;
51358;SDS011;37448;51.588;7.248;2024-02-04T07:57:44;20.77;;;10.63;;
51358;SDS011;37448;51.588;7.248;2024-02-04T07:59:44;25.02;;;11.48;;
51358;SDS011;37448;51.588;7.248;2024-02-04T08:01:45;24.00;;;11.25;;
51358;SDS011;37448;51.588;7.248;2024-02-04T08:03:45;17.92;;;8.90;;
51358;SDS011;37448;51.588;7.248;2024-02-04T08:05:47;21.35;;;10.38;;
51358;SDS011;37448;51.588;7.248;2024-02-04T08:07:47;18.65;;;10.45;;
51358;SDS011;37448;51.588;7.248;2024-02-04T08:09:47;17.50;;;9.30;;
51358;SDS011;37448;51.588;7.248;2024-02-04T08:11:50;18.30;;;9.52;;
51358;SDS011;37448;51.588;7.248;2024-02-04T08:13:51;19.95;;;9.38;;
51358;SDS011;37448;51.588;7.248;2024-02-04T08:15:51;18.98;;;9.70;;
51358;SDS011;37448;51.588;7.248;2024-02-04T08:17:51;18.65;;;9.07;;
51358;SDS011;37448;51.588;7.248;2024-02-04T08:19:52;17.25;;;10.38;;
51358;SDS011;37448;51.588;7.248;2024-02-04T08:21:52;18.35;;;9.25;;
51358;SDS011;37448;51.588;7.248;2024-02-04T08:23:52;17.23;;;8.50;;
51358;SDS011;37448;51.588;7.248;2024-02-04T08:25:53;16.98;;;8.25;;
51358;SDS011;37448;51.588;7.248;2024-02-04T08:27:54;18.27;;;9.02;;
51358;SDS011;37448;51.588;7.248;2024-02-04T08:29:54;13.32;;;7.55;;
51358;SDS011;37448;51.588;7.248;2024-02-04T08:31:55;12.18;;;7.05;;
51358;SDS011;37448;51.588;7.248;2024-02-04T08:33:55;18.42;;;7.70;;
51358;SDS011;37448;51.588;7.248;2024-02-04T08:35:56;13.40;;;6.97;;
51358;SDS011;37448;51.588;7.248;2024-02-04T08:37:56;13.63;;;7.38;;
51358;SDS011;37448;51.588;7.248;2024-02-04T08:39:57;14.10;;;6.90;;
51358;SDS011;37448;51.588;7.248;2024-02-04T08:41:57;14.35;;;6.80;;
51358;SDS011;37448;51.588;7.248;2024-02-04T08:43:57;13.63;;;6.32;;
51358;SDS011;37448;51.588;7.248;2024-02-04T08:45:58;14.50;;;6.47;;
51358;SDS011;37448;51.588;7.248;2024-02-04T08:47:58;11.40;;;6.10;;
51358;SDS011;37448;51.588;7.248;2024-02-04T08:49:58;11.82;;;5.72;;
51358;SDS011;37448;51.588;7.248;2024-02-04T08:51:59;13.50;;;6.90;;
51358;SDS011;37448;51.588;7.248;2024-02-04T08:53:59;14.13;;;6.35;;
51358;SDS011;37448;51.588;7.248;2024-02-04T08:56:00;10.30;;;5.95;;
51358;SDS011;37448;51.588;7.248;2024-02-04T08:58:00;9.40;;;5.22;;
51358;SDS011;37448;51.588;7.248;2024-02-04T09:00:01;10.38;;;5.20;;
51358;SDS011;37448;51.588;7.248;2024-02-04T09:02:01;7.55;;;4.78;;
51358;SDS011;37448;51.588;7.248;2024-02-04T09:04:02;8.27;;;4.45;;
51358;SDS011;37448;51.588;7.248;2024-02-04T09:06:02;9.80;;;5.10;;
51358;SDS011;37448;51.588;7.248;2024-02-04T09:08:03;8.90;;;4.93;;
51358;SDS011;37448;51.588;7.248;2024-02-04T09:10:03;6.90;;;3.88;;
51358;SDS011;37448;51.588;7.248;2024-02-04T09:12:04;9.45;;;4.50;;
51358;SDS011;37448;51.588;7.248;2024-02-04T09:14:04;7.90;;;5.10;;
51358;SDS011;37448;51.588;7.248;2024-02-04T09:16:05;7.35;;;4.50;;
51358;SDS011;37448;51.588;7.248;2024-02-04T09:18:05;8.68;;;4.55;;
51358;SDS011;37448;51.588;7.248;2024-02-04T09:20:06;7.85;;;4.38;;
51358;SDS011;37448;51.588;7.248;2024-02-04T09:22:07;6.28;;;3.60;;
51358;SDS011;37448;51.588;7.248;2024-02-04T09:24:08;4.43;;;3.00;;
51358;SDS011;37448;51.588;7.248;2024-02-04T09:26:09;6.43;;;2.92;;
51358;SDS011;37448;51.588;7.248;2024-02-04T09:28:09;7.72;;;3.58;;
51358;SDS011;37448;51.588;7.248;2024-02-04T09:30:10;3.25;;;2.22;;
51358;SDS011;37448;51.588;7.248;2024-02-04T09:32:11;4.45;;;2.45;;
51358;SDS011;37448;51.588;7.248;2024-02-04T09:34:12;5.60;;;2.40;;
51358;SDS011;37448;51.588;7.248;2024-02-04T09:36:12;3.58;;;2.45;;
51358;SDS011;37448;51.588;7.248;2024-02-04T09:38:12;2.78;;;2.05;;
51358;SDS011;37448;51.588;7.248;2024-02-04T09:40:13;2.90;;;2.17;;
51358;SDS011;37448;51.588;7.248;2024-02-04T09:42:18;3.83;;;2.33;;
51358;SDS011;37448;51.588;7.248;2024-02-04T09:44:23;4.22;;;2.90;;
51358;SDS011;37448;51.588;7.248;2024-02-04T09:46:24;3.40;;;2.25;;
51358;SDS011;37448;51.588;7.248;2024-02-04T09:48:25;4.57;;;2.38;;
51358;SDS011;37448;51.588;7.248;2024-02-04T09:50:27;6.20;;;2.60;;
51358;SDS011;37448;51.588;7.248;2024-02-04T09:52:28;3.35;;;2.42;;
51358;SDS011;37448;51.588;7.248;2024-02-04T09:54:34;3.45;;;1.90;;
51358;SDS011;37448;51.588;7.248;2024-02-04T09:56:41;5.88;;;2.25;;
51358;SDS011;37448;51.588;7.248;2024-02-04T09:58:42;3.45;;;1.95;;
51358;SDS011;37448;51.588;7.248;2024-02-04T10:00:42;4.63;;;2.30;;
51358;SDS011;37448;51.588;7.248;2024-02-04T10:02:45;3.25;;;2.40;;
51358;SDS011;37448;51.588;7.248;2024-02-04T10:04:47;5.22;;;1.60;;
51358;SDS011;37448;51.588;7.248;2024-02-04T10:06:48;5.45;;;2.42;;
51358;SDS011;37448;51.588;7.248;2024-02-04T10:08:48;3.72;;;1.58;;
51358;SDS011;37448;51.588;7.248;2024-02-04T10:10:49;4.65;;;1.88;;
51358;SDS011;37448;51.588;7.248;2024-02-04T10:12:49;3.58;;;2.55;;
51358;SDS011;37448;51.588;7.248;2024-02-04T10:14:50;5.80;;;2.03;;
51358;SDS011;37448;51.588;7.248;2024-02-04T10:16:50;2.42;;;1.50;;
51358;SDS011;37448;51.588;7.248;2024-02-04T10:18:51;5.90;;;2.42;;
51358;SDS011;37448;51.588;7.248;2024-02-04T10:20:53;2.55;;;1.75;;
51358;SDS011;37448;51.588;7.248;2024-02-04T10:22:54;3.00;;;2.55;;
51358;SDS011;37448;51.588;7.248;2024-02-04T10:25:04;4.40;;;2.60;;
51358;SDS011;37448;51.588;7.248;2024-02-04T10:27:06;6.47;;;3.58;;
51358;SDS011;37448;51.588;7.248;2024-02-04T10:29:06;6.00;;;3.13;;
51358;SDS011;37448;51.588;7.248;2024-02-04T10:31:09;5.82;;;2.88;;
51358;SDS011;37448;51.588;7.248;2024-02-04T10:33:10;6.63;;;3.45;;
51358;SDS011;37448;51.588;7.248;2024-02-04T10:35:10;7.05;;;4.10;;
51358;SDS011;37448;51.588;7.248;2024-02-04T10:37:10;7.18;;;3.55;;
51358;SDS011;37448;51.588;7.248;2024-02-04T10:39:11;6.35;;;3.85;;
51358;SDS011;37448;51.588;7.248;2024-02-04T10:41:14;8.10;;;4.35;;
51358;SDS011;37448;51.588;7.248;2024-02-04T10:45:17;9.77;;;4.57;;
51358;SDS011;37448;51.588;7.248;2024-02-04T10:47:20;7.60;;;5.45;;
51358;SDS011;37448;51.588;7.248;2024-02-04T10:49:23;8.48;;;4.72;;
51358;SDS011;37448;51.588;7.248;2024-02-04T10:51:26;9.70;;;5.20;;
51358;SDS011;37448;51.588;7.248;2024-02-04T10:53:27;9.40;;;5.45;;
51358;SDS011;37448;51.588;7.248;2024-02-04T10:55:28;9.93;;;5.43;;
51358;SDS011;37448;51.588;7.248;2024-02-04T10:57:30;9.57;;;5.18;;
51358;SDS011;37448;51.588;7.248;2024-02-04T10:59:31;10.40;;;5.35;;
51358;SDS011;37448;51.588;7.248;2024-02-04T11:01:32;10.90;;;5.53;;
51358;SDS011;37448;51.588;7.248;2024-02-04T11:03:33;10.18;;;4.93;;
51358;SDS011;37448;51.588;7.248;2024-02-04T11:05:34;11.88;;;5.95;;
51358;SDS011;37448;51.588;7.248;2024-02-04T11:07:35;12.93;;;5.78;;
51358;SDS011;37448;51.588;7.248;2024-02-04T11:09:37;10.77;;;5.60;;
51358;SDS011;37448;51.588;7.248;2024-02-04T11:11:38;10.57;;;5.47;;
51358;SDS011;37448;51.588;7.248;2024-02-04T11:13:40;10.05;;;5.55;;
51358;SDS011;37448;51.588;7.248;2024-02-04T11:15:44;12.45;;;5.78;;
51358;SDS011;37448;51.588;7.248;2024-02-04T11:22:55;8.60;;;5.35;;
51358;SDS011;37448;51.588;7.248;2024-02-04T11:27:26;7.18;;;4.60;;
51358;SDS011;37448;51.588;7.248;2024-02-04T11:29:27;8.90;;;5.38;;
51358;SDS011;37448;51.588;7.248;2024-02-04T11:31:28;7.38;;;4.93;;
51358;SDS011;37448;51.588;7.248;2024-02-04T11:33:29;10.10;;;5.40;;
51358;SDS011;37448;51.588;7.248;2024-02-04T11:35:32;9.48;;;4.57;;
51358;SDS011;37448;51.588;7.248;2024-02-04T11:37:33;9.63;;;5.72;;
51358;SDS011;37448;51.588;7.248;2024-02-04T11:39:34;8.20;;;4.53;;
51358;SDS011;37448;51.588;7.248;2024-02-04T11:41:34;7.53;;;4.95;;
51358;SDS011;37448;51.588;7.248;2024-02-04T11:43:45;12.15;;;4.38;;
51358;SDS011;37448;51.588;7.248;2024-02-04T11:45:45;8.73;;;4.18;;
51358;SDS011;37448;51.588;7.248;2024-02-04T11:47:46;7.43;;;3.45;;
51358;SDS011;37448;51.588;7.248;2024-02-04T11:49:53;5.65;;;2.90;;
51358;SDS011;37448;51.588;7.248;2024-02-04T11:51:54;4.13;;;2.40;;
51358;SDS011;37448;51.588;7.248;2024-02-04T11:53:54;4.53;;;2.53;;
51358;SDS011;37448;51.588;7.248;2024-02-04T11:55:56;5.13;;;2.88;;
51358;SDS011;37448;51.588;7.248;2024-02-04T11:57:57;6.18;;;2.90;;
51358;SDS011;37448;51.588;7.248;2024-02-04T11:59:59;5.00;;;2.53;;
51358;SDS011;37448;51.588;7.248;2024-02-04T12:02:07;4.85;;;2.33;;
51358;SDS011;37448;51.588;7.248;2024-02-04T12:06:12;5.03;;;2.00;;
51358;SDS011;37448;51.588;7.248;2024-02-04T12:08:15;3.10;;;1.90;;
51358;SDS011;37448;51.588;7.248;2024-02-04T12:10:16;4.03;;;2.00;;
51358;SDS011;37448;51.588;7.248;2024-02-04T12:12:16;4.30;;;1.88;;
51358;SDS011;37448;51.588;7.248;2024-02-04T12:14:17;4.45;;;2.78;;
51358;SDS011;37448;51.588;7.248;2024-02-04T12:16:18;5.05;;;2.53;;